createdAt,value
2017-07-08T00:00:23.825Z,0
2017-07-08T00:01:31.918Z,0
2017-07-08T00:02:40.008Z,0
2017-07-08T00:03:48.099Z,0
2017-07-08T00:04:56.187Z,0
2017-07-08T00:06:04.276Z,0
2017-07-08T00:07:12.363Z,0
2017-07-08T00:08:20.454Z,0
2017-07-08T00:09:28.550Z,0
2017-07-08T00:10:36.637Z,0
2017-07-08T00:11:44.737Z,0
2017-07-08T00:12:52.817Z,0
2017-07-08T00:14:00.914Z,0
2017-07-08T00:15:09.003Z,0
2017-07-08T00:16:17.092Z,0
2017-07-08T00:17:25.183Z,0
2017-07-08T00:18:33.271Z,0
2017-07-08T00:19:41.363Z,0
2017-07-08T00:20:49.453Z,0
2017-07-08T00:21:57.541Z,0
2017-07-08T00:23:05.653Z,0
2017-07-08T00:24:13.716Z,0
2017-07-08T00:25:21.807Z,0
2017-07-08T00:26:29.898Z,0
2017-07-08T00:27:37.986Z,0
2017-07-08T00:28:46.076Z,0
2017-07-08T00:29:54.167Z,0
2017-07-08T00:31:02.255Z,0
2017-07-08T00:32:10.343Z,0
2017-07-08T00:33:18.433Z,0
2017-07-08T00:34:26.527Z,0
2017-07-08T00:35:34.611Z,0
2017-07-08T00:36:42.700Z,0
2017-07-08T00:37:50.789Z,0
2017-07-08T00:38:58.878Z,0
2017-07-08T00:40:06.968Z,0
2017-07-08T00:41:15.059Z,0
2017-07-08T00:42:23.147Z,0
2017-07-08T00:43:31.235Z,0
2017-07-08T00:44:39.322Z,0
2017-07-08T00:45:47.410Z,0
2017-07-08T00:46:55.503Z,0
2017-07-08T00:48:03.591Z,0
2017-07-08T00:49:11.681Z,0
2017-07-08T00:50:19.818Z,0
2017-07-08T00:51:27.862Z,0
2017-07-08T00:52:35.967Z,0
2017-07-08T00:53:44.037Z,0
2017-07-08T00:54:52.124Z,0
2017-07-08T00:56:00.214Z,0
2017-07-08T00:57:08.307Z,0
2017-07-08T00:58:16.392Z,0
2017-07-08T00:59:24.482Z,0
2017-07-08T01:00:32.597Z,0
2017-07-08T01:01:40.662Z,0
2017-07-08T01:02:48.751Z,0
2017-07-08T01:03:56.864Z,0
2017-07-08T01:05:04.926Z,0
2017-07-08T01:06:13.015Z,0
2017-07-08T01:07:21.107Z,0
2017-07-08T01:08:29.197Z,0
2017-07-08T01:09:37.283Z,0
2017-07-08T01:10:45.373Z,0
2017-07-08T01:11:53.486Z,0
2017-07-08T01:13:01.551Z,0
2017-07-08T01:14:09.640Z,0
2017-07-08T01:15:17.737Z,0
2017-07-08T01:16:25.818Z,0
2017-07-08T01:17:33.980Z,0
2017-07-08T01:18:41.998Z,0
2017-07-08T01:19:50.087Z,0
2017-07-08T01:20:58.176Z,0
2017-07-08T01:22:06.266Z,0
2017-07-08T01:23:14.352Z,0
2017-07-08T01:24:22.468Z,0
2017-07-08T01:25:30.542Z,0
2017-07-08T01:26:38.646Z,0
2017-07-08T01:27:46.711Z,0
2017-07-08T01:28:54.801Z,0
2017-07-08T01:30:02.891Z,0
2017-07-08T01:31:10.978Z,0
2017-07-08T01:32:19.067Z,0
2017-07-08T01:33:27.158Z,0
2017-07-08T01:34:35.299Z,0
2017-07-08T01:35:43.335Z,0
2017-07-08T01:36:51.424Z,0
2017-07-08T01:37:59.513Z,0
2017-07-08T01:39:07.627Z,0
2017-07-08T01:40:15.692Z,0
2017-07-08T01:41:23.790Z,0
2017-07-08T01:42:31.869Z,0
2017-07-08T01:43:39.958Z,0
2017-07-08T01:44:48.046Z,0
2017-07-08T01:45:56.136Z,0
2017-07-08T01:47:04.226Z,0
2017-07-08T01:48:12.315Z,0
2017-07-08T01:49:20.462Z,0
2017-07-08T01:50:28.496Z,0
2017-07-08T01:51:36.658Z,0
2017-07-08T01:52:44.671Z,0
2017-07-08T01:53:52.762Z,0
2017-07-08T01:55:00.851Z,0
2017-07-08T01:56:08.939Z,0
2017-07-08T01:57:17.031Z,0
2017-07-08T01:58:25.118Z,0
2017-07-08T01:59:33.209Z,0
2017-07-08T02:00:41.297Z,0
2017-07-08T02:01:49.398Z,0
2017-07-08T02:02:57.480Z,0
2017-07-08T02:04:05.565Z,0
2017-07-08T02:05:13.660Z,0
2017-07-08T02:06:21.753Z,0
2017-07-08T02:07:29.837Z,0
2017-07-08T02:08:37.990Z,0
2017-07-08T02:09:46.018Z,0
2017-07-08T02:10:54.106Z,0
2017-07-08T02:12:02.195Z,0
2017-07-08T02:13:10.283Z,0
2017-07-08T02:14:18.374Z,0
2017-07-08T02:15:26.469Z,0
2017-07-08T02:16:34.559Z,0
2017-07-08T02:17:42.641Z,0
2017-07-08T02:18:50.742Z,0
2017-07-08T02:19:58.817Z,0
2017-07-08T02:21:06.914Z,0
2017-07-08T02:22:15.001Z,0
2017-07-08T02:23:23.091Z,0
2017-07-08T02:24:31.181Z,0
2017-07-08T02:25:39.373Z,0
2017-07-08T02:26:47.360Z,0
2017-07-08T02:27:55.450Z,0
2017-07-08T02:29:03.538Z,0
2017-07-08T02:30:11.627Z,0
2017-07-08T02:31:19.716Z,0
2017-07-08T02:32:27.806Z,0
2017-07-08T02:33:35.897Z,0
2017-07-08T02:34:43.992Z,0
2017-07-08T02:35:52.075Z,0
2017-07-08T02:37:00.163Z,0
2017-07-08T02:38:08.254Z,0
2017-07-08T02:39:16.341Z,0
2017-07-08T02:40:24.430Z,0
2017-07-08T02:41:32.519Z,0
2017-07-08T02:42:40.607Z,0
2017-07-08T02:43:48.697Z,0
2017-07-08T02:44:56.786Z,0
2017-07-08T02:46:04.996Z,0
2017-07-08T02:47:12.963Z,0
2017-07-08T02:48:21.053Z,0
2017-07-08T02:49:29.142Z,0
2017-07-08T02:50:37.232Z,0
2017-07-08T02:51:45.319Z,0
2017-07-08T02:52:53.410Z,0
2017-07-08T02:54:01.501Z,0
2017-07-08T02:55:09.588Z,0
2017-07-08T02:56:17.677Z,0
2017-07-08T02:57:25.767Z,0
2017-07-08T02:58:33.855Z,0
2017-07-08T02:59:41.945Z,0
2017-07-08T03:00:50.032Z,0
2017-07-08T03:01:58.123Z,0
2017-07-08T03:03:06.211Z,0
2017-07-08T03:04:14.302Z,0
2017-07-08T03:05:22.429Z,0
2017-07-08T03:06:30.480Z,0
2017-07-08T03:07:38.593Z,0
2017-07-08T03:08:46.685Z,0
2017-07-08T03:09:54.746Z,0
2017-07-08T03:11:02.835Z,0
2017-07-08T03:12:10.949Z,0
2017-07-08T03:13:19.015Z,0
2017-07-08T03:14:27.103Z,0
2017-07-08T03:15:35.192Z,0
2017-07-08T03:16:43.283Z,0
2017-07-08T03:17:51.371Z,0
2017-07-08T03:18:59.522Z,0
2017-07-08T03:20:07.547Z,0
2017-07-08T03:21:15.661Z,0
2017-07-08T03:22:23.725Z,0
2017-07-08T03:23:31.816Z,0
2017-07-08T03:24:39.904Z,0
2017-07-08T03:25:47.994Z,0
2017-07-08T03:26:56.083Z,0
2017-07-08T03:28:04.172Z,0
2017-07-08T03:29:12.260Z,0
2017-07-08T03:30:20.348Z,0
2017-07-08T03:31:28.439Z,0
2017-07-08T03:32:36.527Z,0
2017-07-08T03:33:44.616Z,0
2017-07-08T03:34:52.705Z,0
2017-07-08T03:36:00.795Z,0
2017-07-08T03:37:08.883Z,0
2017-07-08T03:38:16.973Z,0
2017-07-08T03:39:25.061Z,0
2017-07-08T03:40:33.149Z,0
2017-07-08T03:41:41.242Z,0
2017-07-08T03:42:49.328Z,4
2017-07-08T03:43:57.419Z,4
2017-07-08T03:45:05.507Z,0
2017-07-08T03:46:13.622Z,0
2017-07-08T03:47:21.686Z,0
2017-07-08T03:48:29.775Z,0
2017-07-08T03:49:37.864Z,0
2017-07-08T03:50:45.951Z,0
2017-07-08T03:51:54.040Z,0
2017-07-08T03:53:02.130Z,0
2017-07-08T03:54:10.218Z,0
2017-07-08T03:55:18.307Z,4
2017-07-08T03:56:26.406Z,4
2017-07-08T03:57:34.493Z,4
2017-07-08T03:58:42.581Z,4
2017-07-08T03:59:50.674Z,4
2017-07-08T04:00:58.761Z,4
2017-07-08T04:02:06.875Z,4
2017-07-08T04:03:14.936Z,0
2017-07-08T04:04:23.028Z,0
2017-07-08T04:05:31.118Z,0
2017-07-08T04:06:39.206Z,0
2017-07-08T04:07:47.293Z,0
2017-07-08T04:08:55.382Z,4
2017-07-08T04:10:03.471Z,4
2017-07-08T04:11:11.561Z,0
2017-07-08T04:12:19.649Z,4
2017-07-08T04:13:27.795Z,4
2017-07-08T04:14:35.830Z,4
2017-07-08T04:15:43.918Z,4
2017-07-08T04:16:52.007Z,4
2017-07-08T04:18:00.093Z,0
2017-07-08T04:19:08.182Z,4
2017-07-08T04:20:16.272Z,4
2017-07-08T04:21:24.362Z,4
2017-07-08T04:22:32.467Z,4
2017-07-08T04:23:40.539Z,4
2017-07-08T04:24:48.629Z,4
2017-07-08T04:25:56.717Z,4
2017-07-08T04:27:04.809Z,4
2017-07-08T04:28:12.921Z,4
2017-07-08T04:29:20.982Z,4
2017-07-08T04:30:29.072Z,4
2017-07-08T04:31:37.162Z,4
2017-07-08T04:32:45.252Z,4
2017-07-08T04:33:53.341Z,4
2017-07-08T04:35:01.459Z,4
2017-07-08T04:36:09.521Z,4
2017-07-08T04:37:17.773Z,4
2017-07-08T04:38:25.696Z,4
2017-07-08T04:39:33.889Z,4
2017-07-08T04:40:41.873Z,8
2017-07-08T04:41:49.961Z,8
2017-07-08T04:42:58.050Z,4
2017-07-08T04:44:06.141Z,8
2017-07-08T04:45:14.230Z,4
2017-07-08T04:46:22.321Z,4
2017-07-08T04:47:30.420Z,8
2017-07-08T04:48:38.497Z,4
2017-07-08T04:49:46.587Z,8
2017-07-08T04:50:54.684Z,8
2017-07-08T04:52:02.766Z,8
2017-07-08T04:53:10.856Z,8
2017-07-08T04:54:18.944Z,8
2017-07-08T04:55:27.033Z,8
2017-07-08T04:56:35.123Z,12
2017-07-08T04:57:43.211Z,8
2017-07-08T04:58:51.298Z,8
2017-07-08T04:59:59.389Z,8
2017-07-08T05:01:07.477Z,12
2017-07-08T05:02:15.590Z,8
2017-07-08T05:03:23.656Z,8
2017-07-08T05:04:31.746Z,12
2017-07-08T05:05:39.842Z,12
2017-07-08T05:06:47.924Z,12
2017-07-08T05:07:56.011Z,12
2017-07-08T05:09:04.101Z,12
2017-07-08T05:10:12.792Z,8
2017-07-08T05:11:20.280Z,8
2017-07-08T05:12:28.917Z,8
2017-07-08T05:13:36.460Z,8
2017-07-08T05:14:44.571Z,8
2017-07-08T05:15:52.639Z,12
2017-07-08T05:17:00.725Z,8
2017-07-08T05:18:08.811Z,8
2017-07-08T05:19:16.903Z,8
2017-07-08T05:20:25.386Z,8
2017-07-08T05:21:33.300Z,8
2017-07-08T05:22:41.170Z,8
2017-07-08T05:23:49.477Z,8
2017-07-08T05:24:57.348Z,4
2017-07-08T05:26:05.902Z,4
2017-07-08T05:27:13.746Z,8
2017-07-08T05:28:21.695Z,8
2017-07-08T05:29:29.699Z,8
2017-07-08T05:30:38.040Z,8
2017-07-08T05:31:45.878Z,12
2017-07-08T05:32:53.969Z,12
2017-07-08T05:34:02.059Z,16
2017-07-08T05:35:10.147Z,16
2017-07-08T05:36:18.638Z,20
2017-07-08T05:37:26.327Z,20
2017-07-08T05:38:34.414Z,20
2017-07-08T05:39:42.985Z,16
2017-07-08T05:40:50.601Z,12
2017-07-08T05:41:59.205Z,12
2017-07-08T05:43:06.772Z,12
2017-07-08T05:44:14.875Z,8
2017-07-08T05:45:22.947Z,12
2017-07-08T05:46:31.068Z,12
2017-07-08T05:47:39.129Z,12
2017-07-08T05:48:47.213Z,12
2017-07-08T05:49:55.301Z,12
2017-07-08T05:51:03.391Z,16
2017-07-08T05:52:11.479Z,16
2017-07-08T05:53:19.569Z,20
2017-07-08T05:54:27.660Z,16
2017-07-08T05:55:35.746Z,16
2017-07-08T05:56:43.833Z,16
2017-07-08T05:57:51.922Z,16
2017-07-08T05:59:00.011Z,12
2017-07-08T06:00:08.100Z,12
2017-07-08T06:01:16.192Z,12
2017-07-08T06:02:24.282Z,8
2017-07-08T06:03:32.607Z,8
2017-07-08T06:04:40.459Z,8
2017-07-08T06:05:48.547Z,12
2017-07-08T06:06:56.634Z,12
2017-07-08T06:08:04.722Z,16
2017-07-08T06:09:12.811Z,12
2017-07-08T06:10:20.908Z,16
2017-07-08T06:11:28.996Z,16
2017-07-08T06:12:37.085Z,16
2017-07-08T06:13:45.729Z,16
2017-07-08T06:14:53.292Z,16
2017-07-08T06:16:01.361Z,16
2017-07-08T06:17:09.451Z,16
2017-07-08T06:18:17.540Z,16
2017-07-08T06:19:25.636Z,16
2017-07-08T06:20:33.993Z,20
2017-07-08T06:21:42.502Z,16
2017-07-08T06:22:50.307Z,16
2017-07-08T06:23:58.134Z,16
2017-07-08T06:25:06.172Z,16
2017-07-08T06:26:14.161Z,20
2017-07-08T06:27:22.260Z,20
2017-07-08T06:28:30.350Z,20
2017-07-08T06:29:38.439Z,16
2017-07-08T06:30:46.532Z,20
2017-07-08T06:31:55.357Z,16
2017-07-08T06:33:02.715Z,16
2017-07-08T06:34:10.804Z,20
2017-07-08T06:35:18.894Z,16
2017-07-08T06:37:38.291Z,16
2017-07-08T06:38:46.384Z,20
2017-07-08T06:39:54.470Z,20
2017-07-08T06:41:02.560Z,20
2017-07-08T06:42:10.648Z,20
2017-07-08T06:43:18.736Z,20
2017-07-08T06:44:26.826Z,20
2017-07-08T06:45:34.916Z,20
2017-07-08T06:46:43.005Z,20
2017-07-08T06:47:51.093Z,20
2017-07-08T06:48:59.191Z,20
2017-07-08T06:50:07.270Z,20
2017-07-08T06:51:15.386Z,24
2017-07-08T06:52:23.452Z,28
2017-07-08T06:53:31.565Z,36
2017-07-08T06:54:39.629Z,36
2017-07-08T06:55:47.718Z,40
2017-07-08T06:56:55.810Z,40
2017-07-08T06:58:03.897Z,44
2017-07-08T06:59:11.991Z,44
2017-07-08T07:00:20.080Z,44
2017-07-08T07:01:28.168Z,40
2017-07-08T07:02:36.258Z,36
2017-07-08T07:03:44.348Z,48
2017-07-08T07:04:52.437Z,48
2017-07-08T07:06:00.525Z,48
2017-07-08T07:07:08.613Z,52
2017-07-08T07:08:16.701Z,48
2017-07-08T07:09:24.790Z,48
2017-07-08T07:10:32.880Z,48
2017-07-08T07:11:40.968Z,48
2017-07-08T07:12:49.057Z,48
2017-07-08T07:13:57.145Z,44
2017-07-08T07:15:05.236Z,44
2017-07-08T07:16:13.324Z,48
2017-07-08T07:17:21.439Z,48
2017-07-08T07:18:29.501Z,48
2017-07-08T07:19:38.031Z,52
2017-07-08T07:20:45.678Z,48
2017-07-08T07:21:53.768Z,52
2017-07-08T07:23:01.856Z,52
2017-07-08T07:24:09.946Z,48
2017-07-08T07:25:18.036Z,48
2017-07-08T07:26:26.124Z,48
2017-07-08T07:27:34.213Z,52
2017-07-08T07:28:42.301Z,48
2017-07-08T07:29:50.390Z,48
2017-07-08T07:30:58.477Z,52
2017-07-08T07:32:06.567Z,52
2017-07-08T07:33:14.658Z,48
2017-07-08T07:34:22.746Z,48
2017-07-08T07:35:30.834Z,48
2017-07-08T07:36:38.922Z,48
2017-07-08T07:37:47.012Z,48
2017-07-08T07:38:55.100Z,48
2017-07-08T07:40:03.240Z,48
2017-07-08T07:41:11.281Z,48
2017-07-08T07:42:19.368Z,48
2017-07-08T07:43:27.457Z,52
2017-07-08T07:44:35.548Z,48
2017-07-08T07:45:43.636Z,48
2017-07-08T07:46:51.725Z,48
2017-07-08T07:47:59.815Z,48
2017-07-08T07:49:07.904Z,52
2017-07-08T07:50:15.992Z,52
2017-07-08T07:51:24.083Z,52
2017-07-08T07:52:32.173Z,48
2017-07-08T07:53:40.264Z,52
2017-07-08T07:54:48.355Z,48
2017-07-08T07:55:56.443Z,52
2017-07-08T07:57:04.538Z,52
2017-07-08T07:58:12.627Z,52
2017-07-08T07:59:20.719Z,48
2017-07-08T08:00:29.004Z,52
2017-07-08T08:01:36.902Z,52
2017-07-08T08:02:44.991Z,52
2017-07-08T08:03:53.079Z,48
2017-07-08T08:05:01.169Z,52
2017-07-08T08:06:09.258Z,52
2017-07-08T08:07:17.347Z,52
2017-07-08T08:08:25.447Z,48
2017-07-08T08:09:33.527Z,48
2017-07-08T08:10:41.618Z,48
2017-07-08T08:11:49.708Z,48
2017-07-08T08:12:57.807Z,48
2017-07-08T08:14:05.896Z,52
2017-07-08T08:15:13.975Z,48
2017-07-08T08:16:22.159Z,48
2017-07-08T08:17:30.154Z,48
2017-07-08T08:18:38.253Z,48
2017-07-08T08:19:46.359Z,48
2017-07-08T08:20:54.434Z,44
2017-07-08T08:22:02.515Z,44
2017-07-08T08:23:10.603Z,48
2017-07-08T08:24:18.695Z,44
2017-07-08T08:25:26.784Z,44
2017-07-08T08:26:34.871Z,44
2017-07-08T08:27:42.961Z,48
2017-07-08T08:28:51.052Z,44
2017-07-08T08:29:59.143Z,44
2017-07-08T08:31:07.232Z,44
2017-07-08T08:32:15.322Z,44
2017-07-08T08:33:23.478Z,44
2017-07-08T08:34:31.503Z,44
2017-07-08T08:35:39.592Z,44
2017-07-08T08:36:47.681Z,44
2017-07-08T08:37:55.770Z,40
2017-07-08T08:39:03.858Z,40
2017-07-08T08:40:11.950Z,44
2017-07-08T08:41:20.041Z,40
2017-07-08T08:42:28.184Z,44
2017-07-08T08:43:36.229Z,40
2017-07-08T08:44:44.341Z,40
2017-07-08T08:45:52.404Z,40
2017-07-08T08:47:00.496Z,40
2017-07-08T08:48:08.585Z,40
2017-07-08T08:49:16.675Z,40
2017-07-08T08:50:24.834Z,40
2017-07-08T08:51:32.857Z,36
2017-07-08T08:52:40.945Z,40
2017-07-08T08:53:49.038Z,40
2017-07-08T08:54:57.124Z,40
2017-07-08T08:56:05.216Z,36
2017-07-08T08:57:13.314Z,40
2017-07-08T08:58:21.451Z,36
2017-07-08T08:59:29.485Z,40
2017-07-08T09:00:37.577Z,36
2017-07-08T09:01:45.667Z,36
2017-07-08T09:02:53.756Z,40
2017-07-08T09:04:01.847Z,36
2017-07-08T09:05:09.936Z,36
2017-07-08T09:06:18.026Z,36
2017-07-08T09:07:26.214Z,36
2017-07-08T09:08:34.213Z,36
2017-07-08T09:09:42.301Z,36
2017-07-08T09:10:50.393Z,36
2017-07-08T09:11:58.483Z,36
2017-07-08T09:13:06.596Z,36
2017-07-08T09:14:14.661Z,36
2017-07-08T09:15:22.751Z,36
2017-07-08T09:16:30.840Z,36
2017-07-08T09:17:38.932Z,36
2017-07-08T09:18:47.022Z,36
2017-07-08T09:19:55.111Z,36
2017-07-08T09:21:03.201Z,36
2017-07-08T09:22:11.292Z,36
2017-07-08T09:23:19.383Z,36
2017-07-08T09:24:27.568Z,36
2017-07-08T09:25:35.562Z,36
2017-07-08T09:26:43.651Z,36
2017-07-08T09:27:51.741Z,32
2017-07-08T09:28:59.832Z,36
2017-07-08T09:30:07.922Z,36
2017-07-08T09:31:16.015Z,36
2017-07-08T09:32:24.103Z,36
2017-07-08T09:33:32.250Z,32
2017-07-08T09:34:40.283Z,36
2017-07-08T09:35:48.373Z,40
2017-07-08T09:36:56.463Z,36
2017-07-08T09:38:04.552Z,36
2017-07-08T09:39:12.654Z,40
2017-07-08T09:40:20.740Z,36
2017-07-08T09:41:28.873Z,36
2017-07-08T09:42:36.926Z,36
2017-07-08T09:43:45.017Z,36
2017-07-08T09:44:53.105Z,36
2017-07-08T09:46:01.197Z,36
2017-07-08T09:47:09.290Z,36
2017-07-08T09:48:17.388Z,32
2017-07-08T09:49:25.468Z,36
2017-07-08T09:50:33.566Z,36
2017-07-08T09:51:41.658Z,40
2017-07-08T09:52:49.746Z,40
2017-07-08T09:53:57.837Z,40
2017-07-08T09:55:05.950Z,36
2017-07-08T09:56:14.018Z,36
2017-07-08T09:57:22.115Z,36
2017-07-08T09:58:30.226Z,40
2017-07-08T09:59:38.351Z,44
2017-07-08T10:00:46.384Z,36
2017-07-08T10:01:54.502Z,36
2017-07-08T10:03:02.566Z,36
2017-07-08T10:04:10.660Z,36
2017-07-08T10:05:18.748Z,36
2017-07-08T10:06:26.838Z,36
2017-07-08T10:07:34.927Z,40
2017-07-08T10:08:43.017Z,44
2017-07-08T10:09:51.108Z,40
2017-07-08T10:10:59.210Z,44
2017-07-08T10:12:07.292Z,48
2017-07-08T10:13:15.381Z,44
2017-07-08T10:14:23.478Z,44
2017-07-08T10:15:31.581Z,44
2017-07-08T10:16:39.657Z,44
2017-07-08T10:17:47.749Z,44
2017-07-08T10:18:55.837Z,44
2017-07-08T10:20:03.929Z,44
2017-07-08T10:21:12.019Z,36
2017-07-08T10:22:20.115Z,20
2017-07-08T10:23:28.206Z,44
2017-07-08T10:24:36.320Z,48
2017-07-08T10:25:44.386Z,52
2017-07-08T10:26:52.475Z,48
2017-07-08T10:28:00.566Z,52
2017-07-08T10:29:08.657Z,52
2017-07-08T10:30:16.750Z,48
2017-07-08T10:31:24.840Z,44
2017-07-08T10:32:32.930Z,44
2017-07-08T10:33:41.021Z,44
2017-07-08T10:34:49.109Z,44
2017-07-08T10:35:57.202Z,44
2017-07-08T10:37:05.291Z,20
2017-07-08T10:38:13.381Z,44
2017-07-08T10:39:21.473Z,48
2017-07-08T10:40:29.563Z,48
2017-07-08T10:41:37.654Z,48
2017-07-08T10:42:45.744Z,52
2017-07-08T10:43:53.835Z,48
2017-07-08T10:45:01.925Z,44
2017-07-08T10:46:10.016Z,44
2017-07-08T10:47:18.114Z,20
2017-07-08T10:48:26.229Z,16
2017-07-08T10:49:34.301Z,16
2017-07-08T10:50:42.391Z,12
2017-07-08T10:51:50.505Z,16
2017-07-08T10:52:58.571Z,20
2017-07-08T10:54:06.670Z,44
2017-07-08T10:55:14.758Z,24
2017-07-08T10:56:22.849Z,28
2017-07-08T10:57:30.943Z,20
2017-07-08T10:58:39.032Z,20
2017-07-08T10:59:47.120Z,24
2017-07-08T11:00:55.210Z,20
2017-07-08T11:02:03.302Z,48
2017-07-08T11:03:11.417Z,52
2017-07-08T11:04:19.483Z,36
2017-07-08T11:05:27.575Z,20
2017-07-08T11:06:35.672Z,36
2017-07-08T11:07:43.760Z,44
2017-07-08T11:08:51.851Z,52
2017-07-08T11:09:59.941Z,48
2017-07-08T11:11:08.033Z,48
2017-07-08T11:12:16.123Z,28
2017-07-08T11:13:24.223Z,40
2017-07-08T11:14:32.307Z,44
2017-07-08T11:15:40.404Z,28
2017-07-08T11:16:48.489Z,36
2017-07-08T11:17:56.581Z,40
2017-07-08T11:19:04.669Z,48
2017-07-08T11:20:12.759Z,44
2017-07-08T11:21:20.851Z,24
2017-07-08T11:22:28.942Z,28
2017-07-08T11:23:37.033Z,24
2017-07-08T11:24:45.125Z,20
2017-07-08T11:25:53.214Z,20
2017-07-08T11:27:01.306Z,16
2017-07-08T11:28:09.394Z,20
2017-07-08T11:29:17.486Z,16
2017-07-08T11:30:25.576Z,16
2017-07-08T11:31:33.668Z,44
2017-07-08T11:32:41.757Z,44
2017-07-08T11:33:49.848Z,44
2017-07-08T11:34:57.948Z,36
2017-07-08T11:36:06.039Z,24
2017-07-08T11:37:14.120Z,24
2017-07-08T11:38:22.211Z,20
2017-07-08T11:39:30.311Z,20
2017-07-08T11:40:38.394Z,16
2017-07-08T11:41:46.486Z,20
2017-07-08T11:42:54.577Z,16
2017-07-08T11:44:02.667Z,12
2017-07-08T11:45:10.756Z,20
2017-07-08T11:46:18.847Z,16
2017-07-08T11:47:26.936Z,16
2017-07-08T11:48:35.029Z,12
2017-07-08T11:49:43.120Z,12
2017-07-08T11:50:51.210Z,12
2017-07-08T11:51:59.301Z,16
2017-07-08T11:53:07.392Z,20
2017-07-08T11:54:15.482Z,16
2017-07-08T11:55:23.573Z,16
2017-07-08T11:56:31.665Z,12
2017-07-08T11:57:39.771Z,12
2017-07-08T11:58:47.860Z,12
2017-07-08T11:59:55.950Z,12
2017-07-08T12:01:04.041Z,12
2017-07-08T12:02:12.131Z,8
2017-07-08T12:03:20.223Z,8
2017-07-08T12:04:28.316Z,12
2017-07-08T12:05:36.410Z,16
2017-07-08T12:06:44.498Z,12
2017-07-08T12:07:52.601Z,16
2017-07-08T12:09:00.691Z,32
2017-07-08T12:10:08.781Z,28
2017-07-08T12:11:16.874Z,20
2017-07-08T12:12:24.963Z,20
2017-07-08T12:13:33.057Z,16
2017-07-08T12:14:41.143Z,16
2017-07-08T12:15:49.235Z,12
2017-07-08T12:16:57.326Z,12
2017-07-08T12:18:05.417Z,8
2017-07-08T12:19:13.513Z,8
2017-07-08T12:20:21.597Z,12
2017-07-08T12:21:29.687Z,12
2017-07-08T12:22:37.778Z,16
2017-07-08T12:23:45.869Z,12
2017-07-08T12:24:53.961Z,8
2017-07-08T12:26:02.051Z,8
2017-07-08T12:27:10.143Z,12
2017-07-08T12:28:18.234Z,12
2017-07-08T12:29:26.381Z,16
2017-07-08T12:30:34.437Z,36
2017-07-08T12:31:42.506Z,20
2017-07-08T12:32:50.596Z,32
2017-07-08T12:33:58.687Z,32
2017-07-08T12:35:06.779Z,36
2017-07-08T12:36:14.869Z,36
2017-07-08T12:37:22.960Z,36
2017-07-08T12:38:31.052Z,20
2017-07-08T12:39:39.141Z,12
2017-07-08T12:40:47.246Z,16
2017-07-08T12:41:55.323Z,16
2017-07-08T12:43:03.411Z,32
2017-07-08T12:44:11.526Z,32
2017-07-08T12:45:19.593Z,32
2017-07-08T12:46:27.693Z,36
2017-07-08T12:47:35.777Z,20
2017-07-08T12:48:43.868Z,28
2017-07-08T12:49:51.959Z,28
2017-07-08T12:51:00.048Z,24
2017-07-08T12:52:08.140Z,32
2017-07-08T12:53:16.248Z,28
2017-07-08T12:54:24.319Z,24
2017-07-08T12:55:32.434Z,12
2017-07-08T12:56:40.508Z,28
2017-07-08T12:57:48.600Z,28
2017-07-08T12:58:56.689Z,16
2017-07-08T13:00:04.780Z,16
2017-07-08T13:01:12.872Z,20
2017-07-08T13:02:20.961Z,20
2017-07-08T13:03:29.052Z,16
2017-07-08T13:04:37.145Z,36
2017-07-08T13:05:45.235Z,32
2017-07-08T13:06:53.327Z,20
2017-07-08T13:08:01.417Z,20
2017-07-08T13:09:09.505Z,20
2017-07-08T13:10:17.603Z,16
2017-07-08T13:11:25.694Z,16
2017-07-08T13:12:33.786Z,16
2017-07-08T13:13:41.877Z,16
2017-07-08T13:14:50.023Z,16
2017-07-08T13:15:58.058Z,16
2017-07-08T13:17:06.147Z,20
2017-07-08T13:18:14.357Z,16
2017-07-08T13:19:22.329Z,20
2017-07-08T13:20:30.422Z,28
2017-07-08T13:21:38.510Z,28
2017-07-08T13:22:46.613Z,12
2017-07-08T13:23:54.694Z,16
2017-07-08T13:25:02.783Z,16
2017-07-08T13:26:10.874Z,24
2017-07-08T13:27:18.969Z,28
2017-07-08T13:28:27.057Z,28
2017-07-08T13:29:35.148Z,16
2017-07-08T13:30:43.248Z,16
2017-07-08T13:31:51.330Z,16
2017-07-08T13:32:59.444Z,16
2017-07-08T13:34:07.512Z,28
2017-07-08T13:35:15.602Z,20
2017-07-08T13:36:23.692Z,20
2017-07-08T13:37:31.783Z,28
2017-07-08T13:38:39.873Z,28
2017-07-08T13:39:47.965Z,28
2017-07-08T13:40:56.058Z,32
2017-07-08T13:42:04.147Z,24
2017-07-08T13:43:12.238Z,28
2017-07-08T13:44:20.353Z,28
2017-07-08T13:45:28.442Z,28
2017-07-08T13:46:36.511Z,24
2017-07-08T13:47:44.601Z,32
2017-07-08T13:48:52.691Z,36
2017-07-08T13:50:00.856Z,36
2017-07-08T13:51:08.875Z,40
2017-07-08T13:52:16.967Z,36
2017-07-08T13:53:25.058Z,40
2017-07-08T13:54:33.148Z,28
2017-07-08T13:55:41.237Z,24
2017-07-08T13:56:49.327Z,24
2017-07-08T13:57:57.419Z,36
2017-07-08T13:59:05.534Z,36
2017-07-08T14:00:13.657Z,40
2017-07-08T14:01:21.700Z,24
2017-07-08T14:02:29.783Z,32
2017-07-08T14:03:37.874Z,24
2017-07-08T14:04:45.965Z,32
2017-07-08T14:05:54.055Z,28
2017-07-08T14:07:02.148Z,24
2017-07-08T14:08:10.236Z,32
2017-07-08T14:09:18.328Z,20
2017-07-08T14:10:26.419Z,24
2017-07-08T14:11:34.519Z,24
2017-07-08T14:12:42.601Z,24
2017-07-08T14:13:50.691Z,16
2017-07-08T14:14:58.782Z,20
2017-07-08T14:16:06.872Z,24
2017-07-08T14:17:14.964Z,16
2017-07-08T14:18:23.054Z,16
2017-07-08T14:19:31.144Z,20
2017-07-08T14:20:39.235Z,16
2017-07-08T14:21:47.334Z,16
2017-07-08T14:22:55.425Z,12
2017-07-08T14:24:03.516Z,12
2017-07-08T14:25:11.606Z,16
2017-07-08T14:26:20.695Z,24
2017-07-08T14:27:27.786Z,24
2017-07-08T14:28:35.878Z,24
2017-07-08T14:29:43.969Z,20
2017-07-08T14:30:52.148Z,16
2017-07-08T14:32:00.154Z,16
2017-07-08T14:33:08.243Z,16
2017-07-08T14:34:16.333Z,12
2017-07-08T14:35:24.423Z,8
2017-07-08T14:36:32.513Z,8
2017-07-08T14:37:40.628Z,8
2017-07-08T14:38:48.696Z,8
2017-07-08T14:39:56.787Z,8
2017-07-08T14:41:04.877Z,8
2017-07-08T14:42:12.969Z,8
2017-07-08T14:43:21.115Z,8
2017-07-08T14:44:29.149Z,8
2017-07-08T14:45:37.264Z,12
2017-07-08T14:46:45.330Z,12
2017-07-08T14:47:53.432Z,12
2017-07-08T14:49:01.512Z,16
2017-07-08T14:50:09.604Z,16
2017-07-08T14:51:17.695Z,16
2017-07-08T14:52:25.786Z,16
2017-07-08T14:53:33.897Z,16
2017-07-08T14:54:41.988Z,16
2017-07-08T14:55:50.078Z,16
2017-07-08T14:56:58.195Z,16
2017-07-08T14:58:06.316Z,20
2017-07-08T14:59:14.354Z,24
2017-07-08T15:00:22.444Z,24
2017-07-08T15:01:30.541Z,32
2017-07-08T15:02:38.629Z,28
2017-07-08T15:03:46.718Z,24
2017-07-08T15:04:54.808Z,20
2017-07-08T15:06:02.899Z,24
2017-07-08T15:07:10.990Z,20
2017-07-08T15:08:19.078Z,24
2017-07-08T15:09:27.169Z,24
2017-07-08T15:10:35.260Z,24
2017-07-08T15:11:43.373Z,24
2017-07-08T15:12:51.440Z,20
2017-07-08T15:13:59.539Z,20
2017-07-08T15:15:07.629Z,12
2017-07-08T15:16:15.758Z,12
2017-07-08T15:17:23.825Z,12
2017-07-08T15:18:31.916Z,8
2017-07-08T15:19:40.009Z,8
2017-07-08T15:20:48.098Z,8
2017-07-08T15:21:56.189Z,4
2017-07-08T15:23:04.278Z,4
2017-07-08T15:24:12.374Z,4
2017-07-08T15:25:20.459Z,4
2017-07-08T15:26:28.576Z,0
2017-07-08T15:29:52.826Z,0
2017-07-08T15:31:00.917Z,4
2017-07-08T15:33:42.943Z,4
2017-07-08T15:34:25.186Z,8
2017-07-08T15:35:33.277Z,8
2017-07-08T15:36:41.369Z,12
2017-07-08T15:37:49.467Z,8
2017-07-08T15:38:57.557Z,12
2017-07-08T15:40:05.648Z,12
2017-07-08T15:41:13.739Z,16
2017-07-08T15:42:21.824Z,16
2017-07-08T15:43:29.916Z,16
2017-07-08T15:44:38.006Z,12
2017-07-08T15:45:46.099Z,12
2017-07-08T15:46:54.192Z,8
2017-07-08T15:48:02.278Z,12
2017-07-08T15:49:10.372Z,8
2017-07-08T15:50:18.460Z,8
2017-07-08T15:51:26.550Z,4
2017-07-08T15:52:34.642Z,8
2017-07-08T15:53:42.761Z,4
2017-07-08T15:54:50.821Z,4
2017-07-08T15:55:58.913Z,4
2017-07-08T15:57:07.002Z,4
2017-07-08T15:58:15.093Z,0
2017-07-08T15:59:23.199Z,4
2017-07-08T16:00:31.275Z,4
2017-07-08T16:01:39.394Z,4
2017-07-08T16:02:47.456Z,4
2017-07-08T16:03:55.545Z,4
2017-07-08T16:05:03.635Z,4
2017-07-08T16:07:19.822Z,0
2017-07-08T16:08:28.005Z,4
2017-07-08T16:09:36.002Z,4
2017-07-08T16:10:44.092Z,4
2017-07-08T16:13:00.273Z,4
2017-07-08T16:14:08.370Z,4
2017-07-08T16:15:16.465Z,8
2017-07-08T16:17:56.515Z,12
2017-07-08T16:18:40.733Z,12
2017-07-08T16:19:48.823Z,12
2017-07-08T16:20:56.919Z,16
2017-07-08T16:22:05.009Z,20
2017-07-08T16:23:13.220Z,16
2017-07-08T16:24:21.192Z,20
2017-07-08T16:25:29.364Z,20
2017-07-08T16:26:37.396Z,24
2017-07-08T16:27:45.463Z,20
2017-07-08T16:28:53.553Z,24
2017-07-08T16:30:01.642Z,24
2017-07-08T16:31:09.732Z,24
2017-07-08T16:32:17.825Z,24